Time;durP1;ratioP1;P1;durP2;ratioP2;P2;SDS_P1;SDS_P2;PMS_P1;PMS_P2;Temp;Humidity;BMP_temperature;BMP_pressure;BME280_temperature;BME280_humidity;BME280_pressure;Samples;Min_cycle;Max_cycle;Signal;HPM_P1;HPM_P2
2022/08/04 00:00:05;;;;;;;5.80;3.90;;;23.50;99.40;;;;;;5045464;28;20448;-75
2022/08/04 00:02:52;;;;;;;10.17;4.07;;;23.40;99.50;;;;;;5047760;28;20887;-75
2022/08/04 00:05:29;;;;;;;3.53;3.30;;;23.40;99.80;;;;;;5037992;28;20459;-77
2022/08/04 00:08:05;;;;;;;6.10;4.10;;;23.30;99.90;;;;;;5047030;28;20446;-75
2022/08/04 00:10:34;;;;;;;4.90;3.87;;;23.30;99.90;;;;;;5038303;28;20514;-75
2022/08/04 00:13:03;;;;;;;4.93;3.80;;;23.30;99.90;;;;;;5036111;28;20452;-75
2022/08/04 00:15:33;;;;;;;6.93;3.87;;;23.20;99.90;;;;;;5034336;28;20457;-76
2022/08/04 00:18:03;;;;;;;4.40;4.00;;;23.20;99.90;;;;;;5043943;28;20510;-75
2022/08/04 00:20:33;;;;;;;4.40;3.90;;;23.20;99.90;;;;;;5034539;28;20473;-75
2022/08/04 00:23:01;;;;;;;4.33;3.60;;;23.20;99.90;;;;;;5035496;28;20826;-75
2022/08/04 00:25:29;;;;;;;13.83;3.60;;;23.10;99.90;;;;;;5039477;28;20456;-75
2022/08/04 00:27:55;;;;;;;5.87;3.50;;;23.10;99.90;;;;;;5040465;28;20879;-75
2022/08/04 00:30:23;;;;;;;4.87;3.93;;;23.10;99.90;;;;;;5038790;28;20468;-75
2022/08/04 00:32:49;;;;;;;4.00;3.70;;;23.00;99.90;;;;;;5045012;28;21540;-75
2022/08/04 00:35:17;;;;;;;9.93;3.80;;;23.00;99.90;;;;;;5039429;28;20922;-75
2022/08/04 00:37:46;;;;;;;7.23;4.30;;;23.00;99.90;;;;;;5033194;28;21023;-75
2022/08/04 00:40:23;;;;;;;4.70;4.30;;;23.10;99.90;;;;;;5037235;28;20539;-75
2022/08/04 00:42:59;;;;;;;3.93;3.40;;;23.10;99.90;;;;;;5035241;28;21159;-75
2022/08/04 00:45:51;;;;;;;4.57;4.27;;;23.00;99.90;;;;;;5034186;28;20485;-75
2022/08/04 00:48:31;;;;;;;5.03;4.00;;;23.10;99.90;;;;;;5034730;28;20463;-75
2022/08/04 00:51:10;;;;;;;9.33;4.23;;;23.10;99.90;;;;;;5033898;28;20476;-75
2022/08/04 00:53:52;;;;;;;5.03;4.20;;;23.10;99.90;;;;;;5044495;28;20468;-75
2022/08/04 00:56:42;;;;;;;5.80;3.70;;;23.00;99.90;;;;;;5031971;28;20450;-75
2022/08/04 00:59:21;;;;;;;5.57;4.10;;;23.00;99.90;;;;;;5037347;28;20498;-75
2022/08/04 01:01:58;;;;;;;4.67;4.17;;;23.00;99.90;;;;;;5032875;28;20521;-75
2022/08/04 01:04:37;;;;;;;5.97;4.70;;;23.00;99.90;;;;;;5032613;28;20456;-75
2022/08/04 01:07:17;;;;;;;5.63;4.30;;;22.90;99.90;;;;;;5035387;28;20503;-75
2022/08/04 01:09:59;;;;;;;3.97;3.67;;;22.90;99.90;;;;;;5033856;28;20457;-75
2022/08/04 01:13:07;;;;;;;5.13;4.27;;;22.80;99.90;;;;;;5034661;28;20883;-75
2022/08/04 01:15:40;;;;;;;5.00;4.40;;;22.70;99.90;;;;;;5026403;28;20838;-75
2022/08/04 01:18:08;;;;;;;5.03;4.10;;;22.80;99.90;;;;;;5043062;28;20483;-75
2022/08/04 01:20:47;;;;;;;4.97;4.50;;;22.70;99.90;;;;;;5039687;28;20485;-75
2022/08/04 01:23:46;;;;;;;5.53;4.70;;;22.70;99.90;;;;;;5034148;28;20454;-75
2022/08/04 01:26:34;;;;;;;11.83;5.00;;;22.70;99.90;;;;;;5031649;28;20445;-75
2022/08/04 01:29:08;;;;;;;7.93;3.93;;;22.60;99.90;;;;;;5040510;28;20449;-75
2022/08/04 01:31:42;;;;;;;5.40;3.97;;;22.50;99.90;;;;;;5036852;28;20519;-75
2022/08/04 01:34:12;;;;;;;4.17;3.70;;;22.50;99.90;;;;;;5034911;28;20448;-75
2022/08/04 01:36:45;;;;;;;5.53;4.13;;;22.40;99.90;;;;;;5041966;28;20449;-75
2022/08/04 01:41:56;;;;;;;7.90;4.07;;;22.20;99.90;;;;;;5039875;28;21013;-75
2022/08/04 01:44:27;;;;;;;6.07;4.30;;;22.20;99.90;;;;;;5038033;28;21033;-75
2022/08/04 01:46:54;;;;;;;4.80;4.40;;;22.10;99.90;;;;;;5042548;28;20456;-75
2022/08/04 01:49:22;;;;;;;12.03;4.10;;;22.00;99.90;;;;;;5040872;28;20556;-75
2022/08/04 01:51:50;;;;;;;4.37;4.00;;;22.00;99.90;;;;;;5039567;28;20496;-75
2022/08/04 01:54:19;;;;;;;4.90;4.50;;;21.90;99.90;;;;;;5037617;28;20483;-75
2022/08/04 01:56:49;;;;;;;7.63;4.57;;;21.90;99.90;;;;;;5036062;28;20448;-75
2022/08/04 01:59:19;;;;;;;4.37;3.97;;;21.90;99.90;;;;;;5036681;28;20502;-75
2022/08/04 02:01:47;;;;;;;7.77;4.70;;;21.80;99.90;;;;;;5035481;28;20516;-75
2022/08/04 02:04:15;;;;;;;4.97;3.97;;;22.00;99.90;;;;;;5034156;28;20449;-75
2022/08/04 02:06:52;;;;;;;4.33;3.97;;;22.00;99.90;;;;;;5036992;28;20507;-75
2022/08/04 02:09:23;;;;;;;4.47;4.17;;;22.10;99.90;;;;;;5036808;28;20719;-75
2022/08/04 02:12:02;;;;;;;6.10;4.30;;;22.10;99.90;;;;;;5037749;28;20853;-75
2022/08/04 02:14:44;;;;;;;7.60;4.63;;;22.10;99.90;;;;;;5036724;28;20448;-75
2022/08/04 02:17:13;;;;;;;8.07;4.47;;;22.10;99.90;;;;;;5038344;28;20508;-75
2022/08/04 02:20:01;;;;;;;6.37;4.27;;;22.10;99.90;;;;;;5038109;28;20461;-75
2022/08/04 02:22:28;;;;;;;7.07;4.20;;;22.10;99.90;;;;;;5036060;28;20527;-75
2022/08/04 02:25:00;;;;;;;4.77;4.30;;;22.10;99.90;;;;;;5036516;28;20506;-75
2022/08/04 02:27:32;;;;;;;4.70;4.00;;;22.10;99.90;;;;;;5035356;28;20449;-75
2022/08/04 02:30:02;;;;;;;12.83;4.50;;;22.10;99.90;;;;;;5042440;28;20455;-75
2022/08/04 02:32:37;;;;;;;4.83;4.00;;;22.00;99.90;;;;;;5034765;28;20459;-75
2022/08/04 02:35:07;;;;;;;4.70;4.30;;;22.00;99.90;;;;;;5037902;28;20460;-75
2022/08/04 02:37:35;;;;;;;5.80;4.30;;;22.00;99.90;;;;;;5046295;28;20499;-75
2022/08/04 02:40:04;;;;;;;5.03;4.40;;;22.00;99.90;;;;;;5042571;28;20505;-75
2022/08/04 02:42:32;;;;;;;6.20;4.13;;;22.00;99.90;;;;;;5046789;28;20861;-75
2022/08/04 02:45:00;;;;;;;4.83;4.20;;;21.90;99.90;;;;;;5040544;28;20448;-75
2022/08/04 02:47:30;;;;;;;5.57;4.30;;;21.90;99.90;;;;;;5043869;28;20460;-75
2022/08/04 02:49:58;;;;;;;4.73;4.23;;;21.90;99.90;;;;;;5043849;28;21041;-75
2022/08/04 02:52:25;;;;;;;4.70;4.30;;;21.90;99.90;;;;;;5038674;28;20945;-75
2022/08/04 02:54:54;;;;;;;6.57;4.90;;;21.90;99.90;;;;;;5041375;28;20456;-75
2022/08/04 02:57:23;;;;;;;4.77;4.43;;;21.90;99.90;;;;;;5037898;28;20488;-75
2022/08/04 03:00:05;;;;;;;5.43;4.33;;;21.80;99.90;;;;;;5042410;28;20448;-75
2022/08/04 03:02:46;;;;;;;4.43;4.03;;;21.70;99.90;;;;;;5040711;28;20514;-75
2022/08/04 03:05:17;;;;;;;4.47;4.07;;;21.70;99.90;;;;;;5035054;28;20456;-75
2022/08/04 03:08:12;;;;;;;4.10;3.70;;;21.40;99.90;;;;;;5038622;28;20496;-75
2022/08/04 03:11:21;;;;;;;11.67;4.40;;;21.30;99.90;;;;;;5040592;28;20472;-75
2022/08/04 03:14:17;;;;;;;6.30;4.13;;;21.20;99.90;;;;;;5044165;28;20873;-75
2022/08/04 03:17:27;;;;;;;4.00;3.60;;;21.20;99.90;;;;;;5042588;28;20449;-75
2022/08/04 03:20:28;;;;;;;8.33;4.00;;;21.20;99.90;;;;;;5042653;28;20465;-75
2022/08/04 03:23:29;;;;;;;7.43;4.30;;;21.10;99.90;;;;;;5038475;28;20527;-75
2022/08/04 03:26:37;;;;;;;4.37;4.07;;;21.00;99.90;;;;;;5045266;28;21028;-75
2022/08/04 03:29:32;;;;;;;4.87;4.47;;;20.90;99.90;;;;;;5039457;28;20452;-75
2022/08/04 03:32:34;;;;;;;9.27;4.77;;;20.90;99.90;;;;;;5042617;28;20480;-75
2022/08/04 03:35:29;;;;;;;7.90;4.47;;;20.90;99.90;;;;;;5003029;28;20959;-75
2022/08/04 03:38:18;;;;;;;5.13;4.63;;;21.00;99.90;;;;;;5048127;28;20537;-75
2022/08/04 03:41:08;;;;;;;5.00;4.60;;;21.00;99.90;;;;;;5035927;28;20535;-75
2022/08/04 03:44:25;;;;;;;7.63;4.17;;;21.00;99.90;;;;;;5042330;28;20448;-75
2022/08/04 03:47:24;;;;;;;9.20;5.60;;;21.00;99.90;;;;;;4976595;28;20503;-75
2022/08/04 03:50:30;;;;;;;4.73;4.30;;;21.10;99.90;;;;;;4976373;28;21011;-75
2022/08/04 03:53:11;;;;;;;4.70;4.30;;;21.10;99.90;;;;;;4978964;28;20456;-75
2022/08/04 03:56:06;;;;;;;6.43;4.63;;;21.10;99.90;;;;;;5033434;28;20457;-75
2022/08/04 03:59:07;;;;;;;5.80;4.53;;;21.20;99.90;;;;;;5045231;28;20476;-75
2022/08/04 04:01:56;;;;;;;8.63;5.10;;;21.20;99.90;;;;;;5036475;28;20470;-75
2022/08/04 04:04:45;;;;;;;5.43;4.97;;;21.20;99.90;;;;;;5038722;28;20457;-77
2022/08/04 04:07:31;;;;;;;7.70;5.53;;;21.10;99.90;;;;;;5041959;28;20451;-75
2022/08/04 04:10:19;;;;;;;5.30;4.67;;;21.10;99.90;;;;;;5041181;28;20516;-75
2022/08/04 04:13:06;;;;;;;6.83;5.17;;;21.10;99.90;;;;;;5034639;28;20449;-75
2022/08/04 04:15:47;;;;;;;7.23;4.67;;;21.10;99.90;;;;;;5037991;28;20861;-75
2022/08/04 04:18:28;;;;;;;8.90;4.93;;;21.10;99.90;;;;;;5039225;28;20527;-75
2022/08/04 04:21:34;;;;;;;4.97;4.40;;;21.10;99.90;;;;;;5038525;28;20481;-75
2022/08/04 04:24:12;;;;;;;5.10;4.60;;;21.10;99.90;;;;;;5005153;28;20503;-75
2022/08/04 04:26:54;;;;;;;5.53;4.73;;;21.10;99.90;;;;;;5035794;28;20851;-74
2022/08/04 04:29:38;;;;;;;8.53;4.93;;;21.00;99.90;;;;;;5037084;28;20449;-75
2022/08/04 04:32:14;;;;;;;7.43;4.50;;;21.00;99.90;;;;;;5038062;28;20475;-76
2022/08/04 04:34:53;;;;;;;7.23;5.27;;;21.00;99.90;;;;;;5045477;28;20892;-73
2022/08/04 04:37:42;;;;;;;7.80;5.50;;;21.00;99.90;;;;;;5037622;28;20491;-71
2022/08/04 04:40:27;;;;;;;8.20;4.70;;;21.00;99.90;;;;;;5040159;28;20445;-72
2022/08/04 04:43:11;;;;;;;8.40;4.90;;;21.10;99.90;;;;;;5042568;28;20457;-72
2022/08/04 04:45:43;;;;;;;6.87;4.90;;;21.10;99.90;;;;;;5043397;28;20454;-73
2022/08/04 04:48:23;;;;;;;6.83;4.97;;;21.10;99.90;;;;;;5032229;28;20507;-72
2022/08/04 04:51:05;;;;;;;6.10;5.10;;;21.20;99.90;;;;;;5029726;28;20469;-73
2022/08/04 04:53:42;;;;;;;9.70;5.80;;;21.20;99.90;;;;;;5035818;28;20502;-73
2022/08/04 04:56:18;;;;;;;11.40;5.90;;;21.20;99.90;;;;;;5034329;28;20598;-73
2022/08/04 04:58:46;;;;;;;8.10;5.30;;;21.20;99.90;;;;;;5035640;28;20519;-72
2022/08/04 05:01:49;;;;;;;7.23;5.10;;;21.20;99.90;;;;;;5029388;28;20575;-73
2022/08/04 05:04:36;;;;;;;6.13;5.20;;;21.30;99.90;;;;;;5032689;28;20506;-74
2022/08/04 05:07:21;;;;;;;6.80;4.90;;;21.40;99.90;;;;;;5042237;28;20464;-74
2022/08/04 05:10:03;;;;;;;6.13;5.47;;;21.40;99.90;;;;;;5037737;28;20522;-74
2022/08/04 05:12:50;;;;;;;9.13;5.20;;;21.50;99.90;;;;;;5047816;28;20475;-74
2022/08/04 05:15:17;;;;;;;6.83;5.20;;;21.50;99.90;;;;;;5036712;28;20529;-73
2022/08/04 05:17:51;;;;;;;12.00;5.40;;;21.60;99.90;;;;;;5032595;28;20450;-73
2022/08/04 05:20:23;;;;;;;6.73;5.27;;;21.70;99.90;;;;;;5036381;28;20473;-73
2022/08/04 05:22:54;;;;;;;6.27;4.60;;;21.80;99.90;;;;;;5046974;28;20452;-73
2022/08/04 05:25:23;;;;;;;7.43;5.23;;;21.80;99.90;;;;;;5033028;28;20948;-73
2022/08/04 05:27:57;;;;;;;7.80;5.00;;;21.80;99.90;;;;;;5034437;28;20445;-74
2022/08/04 05:30:27;;;;;;;6.90;4.90;;;21.80;99.90;;;;;;5036441;28;20980;-74
2022/08/04 05:33:02;;;;;;;9.37;4.90;;;21.80;99.90;;;;;;5040310;28;20460;-73
2022/08/04 05:35:33;;;;;;;5.43;4.93;;;21.90;99.90;;;;;;5037984;28;20453;-73
2022/08/04 05:38:02;;;;;;;7.20;5.70;;;22.00;99.90;;;;;;5037893;28;20480;-73
2022/08/04 05:40:29;;;;;;;9.30;5.63;;;22.10;99.90;;;;;;5036327;28;20468;-73
2022/08/04 05:42:59;;;;;;;8.70;5.37;;;22.20;99.90;;;;;;5042708;28;20471;-73
2022/08/04 05:45:26;;;;;;;11.63;6.73;;;22.40;99.90;;;;;;5039333;28;20564;-73
2022/08/04 05:47:54;;;;;;;7.10;5.43;;;22.60;99.90;;;;;;5035092;28;20457;-73
2022/08/04 05:50:22;;;;;;;7.87;5.40;;;22.80;99.90;;;;;;5042188;28;20559;-73
2022/08/04 05:52:50;;;;;;;13.00;5.77;;;22.90;99.90;;;;;;5032056;28;20499;-79
2022/08/04 05:55:18;;;;;;;13.93;5.90;;;23.10;99.90;;;;;;5042171;28;20453;-78
2022/08/04 05:57:47;;;;;;;6.90;5.80;;;23.20;99.90;;;;;;5046199;28;21151;-79
2022/08/04 06:00:17;;;;;;;10.77;5.97;;;23.30;99.90;;;;;;5048021;28;20555;-78
2022/08/04 06:02:45;;;;;;;9.30;5.90;;;23.40;99.90;;;;;;5048737;28;20464;-79
2022/08/04 06:05:13;;;;;;;8.03;5.70;;;23.40;99.90;;;;;;5050540;28;21018;-78
2022/08/04 06:07:40;;;;;;;7.50;5.33;;;23.50;99.90;;;;;;5050711;28;20453;-79
2022/08/04 06:10:08;;;;;;;14.83;5.43;;;23.70;99.90;;;;;;5036132;28;20449;-78
2022/08/04 06:12:40;;;;;;;10.63;5.10;;;23.80;99.90;;;;;;5035009;28;20449;-78
2022/08/04 06:15:12;;;;;;;7.27;5.30;;;23.90;99.90;;;;;;5035200;28;20449;-78
2022/08/04 06:17:45;;;;;;;6.30;4.80;;;24.20;99.90;;;;;;5035344;28;20464;-79
2022/08/04 06:20:15;;;;;;;5.87;5.17;;;24.50;99.90;;;;;;5035158;28;20501;-79
2022/08/04 06:22:44;;;;;;;5.70;4.90;;;24.80;99.90;;;;;;5035058;28;20445;-78
2022/08/04 06:25:13;;;;;;;6.30;4.97;;;25.00;99.90;;;;;;5035120;28;20511;-79
2022/08/04 06:27:41;;;;;;;7.73;5.17;;;25.10;99.90;;;;;;5034686;28;20991;-79
2022/08/04 06:30:13;;;;;;;5.43;4.93;;;25.20;99.90;;;;;;5034769;28;20952;-79
2022/08/04 06:32:54;;;;;;;10.67;5.77;;;25.30;99.90;;;;;;5034905;28;20453;-79
2022/08/04 06:35:21;;;;;;;8.97;4.67;;;25.60;99.90;;;;;;5035135;28;20491;-79
2022/08/04 06:37:49;;;;;;;6.83;4.80;;;25.90;99.90;;;;;;5034824;28;20449;-78
2022/08/04 06:40:17;;;;;;;6.80;4.50;;;26.10;99.90;;;;;;5034533;28;20527;-79
2022/08/04 06:42:45;;;;;;;10.33;4.77;;;26.20;99.90;;;;;;5035059;28;20511;-78
2022/08/04 06:45:14;;;;;;;5.03;4.23;;;26.40;99.90;;;;;;5034862;28;20503;-78
2022/08/04 06:47:44;;;;;;;8.53;4.47;;;26.50;99.90;;;;;;5034675;28;20456;-78
2022/08/04 06:50:12;;;;;;;6.83;4.43;;;26.60;99.90;;;;;;5035128;28;20437;-78
2022/08/04 06:52:39;;;;;;;4.53;3.90;;;26.70;99.90;;;;;;5034578;28;20453;-78
2022/08/04 06:55:07;;;;;;;4.63;4.23;;;26.70;99.90;;;;;;5034604;28;20467;-78
2022/08/04 06:57:36;;;;;;;4.43;3.60;;;26.80;99.90;;;;;;5034591;28;20940;-78
2022/08/04 07:00:06;;;;;;;4.43;3.73;;;26.90;99.90;;;;;;5034538;28;20477;-78
2022/08/04 07:02:39;;;;;;;9.13;3.97;;;27.10;99.90;;;;;;5034453;28;20464;-79
2022/08/04 07:05:08;;;;;;;8.10;4.17;;;27.30;99.90;;;;;;5034222;28;20449;-79
2022/08/04 07:07:35;;;;;;;4.60;4.20;;;27.40;99.90;;;;;;5034449;28;20485;-78
2022/08/04 07:10:02;;;;;;;5.93;4.07;;;27.50;99.90;;;;;;5034252;28;20481;-79
2022/08/04 07:12:30;;;;;;;7.07;3.90;;;27.70;99.90;;;;;;5034070;28;20449;-78
2022/08/04 07:14:57;;;;;;;7.30;3.90;;;27.90;99.90;;;;;;5034242;28;20449;-79
2022/08/04 07:17:25;;;;;;;8.40;4.53;;;28.00;99.90;;;;;;5034146;28;21018;-80
2022/08/04 07:19:52;;;;;;;10.53;3.50;;;28.20;99.90;;;;;;5033807;28;20499;-78
2022/08/04 07:22:21;;;;;;;4.53;3.80;;;28.30;99.90;;;;;;5033235;28;20453;-79
2022/08/04 07:24:47;;;;;;;3.80;3.50;;;28.30;99.90;;;;;;5034196;28;20449;-79
2022/08/04 07:27:17;;;;;;;4.43;3.80;;;28.40;99.90;;;;;;5033897;28;20453;-79
2022/08/04 07:29:44;;;;;;;7.57;3.77;;;28.50;99.90;;;;;;5034438;28;20454;-79
2022/08/04 07:32:12;;;;;;;4.33;3.70;;;28.30;99.90;;;;;;5033460;28;20626;-78
2022/08/04 07:34:40;;;;;;;6.87;3.90;;;28.50;99.90;;;;;;5033919;28;20453;-78
2022/08/04 07:37:07;;;;;;;13.33;3.63;;;28.60;99.90;;;;;;5033961;28;20531;-78
2022/08/04 07:39:36;;;;;;;8.83;4.03;;;28.80;99.90;;;;;;5033621;28;20485;-79
2022/08/04 07:42:04;;;;;;;9.87;4.00;;;28.80;99.90;;;;;;5033461;28;20495;-79
2022/08/04 07:44:32;;;;;;;13.90;3.80;;;28.70;99.90;;;;;;5033493;28;20866;-79
2022/08/04 07:46:59;;;;;;;11.13;3.50;;;28.70;99.90;;;;;;5033461;28;20465;-79
2022/08/04 07:49:26;;;;;;;4.00;3.30;;;28.80;99.90;;;;;;5033584;28;20519;-79
2022/08/04 07:51:54;;;;;;;8.73;3.70;;;28.80;99.90;;;;;;5033230;28;20515;-79
2022/08/04 07:54:22;;;;;;;9.10;3.80;;;28.90;99.90;;;;;;5033239;28;20445;-78
2022/08/04 07:56:50;;;;;;;5.20;3.60;;;28.90;99.90;;;;;;5033332;28;20508;-78
2022/08/04 07:59:17;;;;;;;5.30;3.83;;;28.70;99.90;;;;;;5032783;28;20489;-79
2022/08/04 08:01:45;;;;;;;5.90;3.43;;;28.70;99.90;;;;;;5032949;28;20899;-79
2022/08/04 08:04:12;;;;;;;16.37;3.73;;;28.60;99.90;;;;;;5033338;28;20453;-78
2022/08/04 08:06:40;;;;;;;3.43;3.20;;;28.70;99.90;;;;;;5033132;28;20461;-79
2022/08/04 08:09:08;;;;;;;3.93;3.53;;;28.90;99.90;;;;;;5033179;28;20883;-78
2022/08/04 08:11:35;;;;;;;12.40;3.60;;;29.20;99.90;;;;;;5032771;28;20566;-79
2022/08/04 08:14:03;;;;;;;7.43;3.73;;;29.30;99.90;;;;;;5032984;28;20465;-79
2022/08/04 08:16:32;;;;;;;10.17;3.20;;;29.50;99.90;;;;;;5033292;28;20851;-80
2022/08/04 08:19:00;;;;;;;8.20;4.23;;;29.70;99.90;;;;;;5032992;28;20525;-79
2022/08/04 08:21:26;;;;;;;5.50;2.80;;;29.90;99.90;;;;;;5032866;28;20985;-80
2022/08/04 08:23:53;;;;;;;4.20;3.37;;;30.00;99.90;;;;;;5033225;28;20457;-79
2022/08/04 08:26:20;;;;;;;3.70;2.93;;;30.10;99.90;;;;;;5032825;28;20511;-79
2022/08/04 08:28:47;;;;;;;7.50;3.00;;;30.10;99.90;;;;;;5033045;28;20524;-80
2022/08/04 08:31:15;;;;;;;9.50;3.40;;;30.10;99.60;;;;;;5032831;28;20531;-79
2022/08/04 08:33:42;;;;;;;4.90;3.90;;;30.30;99.50;;;;;;5032881;28;20453;-79
2022/08/04 08:36:16;;;;;;;8.30;3.60;;;30.50;99.80;;;;;;5032867;28;20499;-79
2022/08/04 08:38:47;;;;;;;3.10;2.90;;;30.70;99.40;;;;;;5032855;28;20441;-79
2022/08/04 08:41:36;;;;;;;3.57;3.20;;;31.00;99.10;;;;;;5032627;28;20527;-80
2022/08/04 08:44:18;;;;;;;4.47;3.07;;;31.20;98.10;;;;;;5024023;28;20960;-79
2022/08/04 08:47:02;;;;;;;4.73;3.70;;;31.20;97.90;;;;;;5032778;28;20449;-79
2022/08/04 08:49:59;;;;;;;7.30;2.80;;;31.20;97.70;;;;;;5032690;28;20616;-79
2022/08/04 08:52:44;;;;;;;4.23;2.87;;;31.40;97.30;;;;;;5032446;28;20515;-79
2022/08/04 08:55:24;;;;;;;3.83;3.30;;;31.50;97.20;;;;;;5032591;28;20445;-79
2022/08/04 08:58:05;;;;;;;8.50;3.10;;;31.80;97.10;;;;;;5033086;28;20503;-78
2022/08/04 09:00:45;;;;;;;4.97;3.00;;;32.10;96.70;;;;;;5032208;28;21022;-79
2022/08/04 09:03:35;;;;;;;6.53;3.43;;;32.30;96.00;;;;;;5033116;28;20866;-79
2022/08/04 09:06:17;;;;;;;7.07;3.73;;;32.50;95.80;;;;;;5033015;28;20499;-79
2022/08/04 09:09:00;;;;;;;5.83;3.23;;;32.80;95.60;;;;;;5032818;28;20449;-79
2022/08/04 09:11:37;;;;;;;4.00;3.57;;;32.60;95.00;;;;;;5032067;28;20465;-79
2022/08/04 09:14:10;;;;;;;4.03;3.47;;;32.40;94.90;;;;;;5032163;28;20455;-80
2022/08/04 09:16:40;;;;;;;3.83;2.90;;;32.30;95.30;;;;;;5032771;28;20457;-78
2022/08/04 09:19:15;;;;;;;13.20;2.77;;;32.60;95.50;;;;;;5033107;28;20551;-79
2022/08/04 09:21:51;;;;;;;4.87;2.97;;;32.90;95.50;;;;;;5033203;28;20477;-79
2022/08/04 09:24:23;;;;;;;7.17;3.17;;;33.10;94.50;;;;;;5033803;28;20453;-79
2022/08/04 09:26:55;;;;;;;5.90;3.30;;;33.20;94.30;;;;;;5033173;28;20454;-79
2022/08/04 09:29:33;;;;;;;4.50;3.40;;;33.30;94.20;;;;;;5034312;28;20937;-79
2022/08/04 09:32:08;;;;;;;3.57;3.20;;;33.50;93.70;;;;;;5032897;28;20510;-79
2022/08/04 09:34:45;;;;;;;4.00;3.00;;;33.70;93.60;;;;;;5034317;28;20457;-79
2022/08/04 09:37:22;;;;;;;5.60;2.53;;;33.80;93.00;;;;;;5034481;28;20510;-79
2022/08/04 09:40:02;;;;;;;6.70;2.37;;;33.80;92.70;;;;;;5032949;28;21008;-79
2022/08/04 09:42:41;;;;;;;6.03;2.83;;;33.80;92.40;;;;;;5033029;28;20453;-79
2022/08/04 09:45:14;;;;;;;8.87;2.60;;;33.90;92.10;;;;;;5032475;28;20448;-79
2022/08/04 09:47:49;;;;;;;2.50;2.30;;;34.20;91.80;;;;;;5033375;28;20503;-79
2022/08/04 09:50:33;;;;;;;7.67;2.90;;;34.40;91.70;;;;;;5033632;28;20847;-79
2022/08/04 09:53:13;;;;;;;2.83;2.63;;;34.60;90.90;;;;;;5034902;28;20499;-79
2022/08/04 09:55:50;;;;;;;2.80;2.40;;;34.60;90.90;;;;;;5035125;28;20511;-79
2022/08/04 09:58:24;;;;;;;4.83;2.50;;;34.70;90.40;;;;;;5034961;28;20866;-79
2022/08/04 10:01:00;;;;;;;5.53;2.87;;;34.80;90.00;;;;;;5035093;28;20496;-79
2022/08/04 10:03:32;;;;;;;2.77;2.57;;;34.80;89.80;;;;;;5035253;28;20448;-79
2022/08/04 10:06:10;;;;;;;2.47;2.10;;;34.60;89.80;;;;;;5034406;28;20538;-79
2022/08/04 10:08:54;;;;;;;2.77;2.57;;;34.50;89.70;;;;;;5034144;28;20452;-79
2022/08/04 10:11:32;;;;;;;5.63;2.30;;;34.70;90.20;;;;;;5034956;28;20454;-79
2022/08/04 10:14:05;;;;;;;5.93;2.20;;;34.80;89.10;;;;;;5034856;28;21007;-79
2022/08/04 10:16:45;;;;;;;5.53;1.93;;;34.80;89.50;;;;;;5033566;28;20453;-79
2022/08/04 10:19:24;;;;;;;4.40;2.50;;;35.00;89.50;;;;;;5035292;28;20461;-79
2022/08/04 10:22:06;;;;;;;4.57;2.23;;;35.00;87.70;;;;;;5033996;28;20477;-79
2022/08/04 10:24:43;;;;;;;6.53;3.30;;;35.10;88.50;;;;;;5038476;28;20453;-79
2022/08/04 10:27:16;;;;;;;2.90;2.63;;;35.00;88.50;;;;;;5037530;28;20855;-79
2022/08/04 10:29:45;;;;;;;2.70;2.47;;;35.00;88.20;;;;;;5038770;28;20842;-79
2022/08/04 10:32:18;;;;;;;3.60;2.43;;;35.20;88.30;;;;;;5036312;28;20471;-78
2022/08/04 10:35:01;;;;;;;3.87;2.33;;;35.20;88.10;;;;;;5031370;28;20453;-79
2022/08/04 10:37:35;;;;;;;5.70;2.40;;;35.40;86.80;;;;;;5031173;28;20929;-78
2022/08/04 10:42:59;;;;;;;4.97;2.70;;;35.60;86.60;;;;;;5031178;28;20534;-78
2022/08/04 10:45:34;;;;;;;5.17;2.63;;;35.60;86.20;;;;;;5031262;28;20475;-78
2022/08/04 10:48:07;;;;;;;3.60;2.50;;;35.40;86.60;;;;;;5031294;28;20467;-78
2022/08/04 10:50:37;;;;;;;6.60;2.63;;;35.40;86.20;;;;;;5030872;28;20469;-79
2022/08/04 10:53:11;;;;;;;7.63;2.87;;;35.40;86.00;;;;;;5031339;28;20441;-79
2022/08/04 10:55:45;;;;;;;5.13;2.53;;;35.20;85.90;;;;;;5031455;28;20494;-78
2022/08/04 10:58:18;;;;;;;4.73;2.43;;;35.00;86.10;;;;;;5033415;28;20944;-78
2022/08/04 11:00:47;;;;;;;6.50;2.60;;;35.00;87.50;;;;;;5034225;28;20497;-78
2022/08/04 11:03:21;;;;;;;6.60;2.93;;;35.20;87.80;;;;;;5034514;28;20890;-78
2022/08/04 11:05:52;;;;;;;3.00;2.70;;;35.30;86.30;;;;;;5034869;28;20445;-79
2022/08/04 11:08:24;;;;;;;6.10;2.77;;;35.40;86.20;;;;;;5034275;28;20809;-79
2022/08/04 11:10:59;;;;;;;2.93;2.47;;;35.30;85.20;;;;;;5033920;28;20527;-78
2022/08/04 11:13:32;;;;;;;7.90;3.00;;;35.20;85.50;;;;;;5034585;28;20448;-78
2022/08/04 11:16:04;;;;;;;3.07;2.43;;;35.30;86.80;;;;;;5034541;28;20457;-78
2022/08/04 11:18:49;;;;;;;14.20;2.97;;;35.20;86.10;;;;;;5034294;28;20871;-78
2022/08/04 11:21:20;;;;;;;3.17;2.90;;;35.00;85.50;;;;;;5033823;28;20488;-78
2022/08/04 11:23:59;;;;;;;4.37;2.73;;;34.90;86.50;;;;;;5034354;28;20445;-78
2022/08/04 11:26:36;;;;;;;7.33;2.93;;;35.00;86.10;;;;;;5034389;28;20499;-78
2022/08/04 11:29:09;;;;;;;2.90;2.70;;;35.20;86.80;;;;;;5034153;28;20456;-78
2022/08/04 11:31:43;;;;;;;5.03;2.90;;;35.50;86.50;;;;;;5033860;28;20465;-78
2022/08/04 11:34:19;;;;;;;6.60;2.83;;;35.70;86.30;;;;;;5034182;28;20462;-78
2022/08/04 11:36:51;;;;;;;5.67;2.77;;;35.90;85.30;;;;;;5034252;28;20453;-78
2022/08/04 11:39:26;;;;;;;6.90;3.27;;;36.10;85.10;;;;;;5034312;28;20454;-79
2022/08/04 11:41:58;;;;;;;2.93;2.60;;;36.20;84.30;;;;;;5033706;28;20496;-78
2022/08/04 11:44:31;;;;;;;4.73;2.87;;;36.50;84.10;;;;;;5033788;28;20441;-78
2022/08/04 11:47:02;;;;;;;5.80;3.27;;;36.70;83.30;;;;;;5034160;28;20503;-78
2022/08/04 11:49:40;;;;;;;3.50;2.67;;;36.70;83.20;;;;;;5034046;28;20453;-79
2022/08/04 11:52:08;;;;;;;3.20;2.73;;;36.80;82.90;;;;;;5033395;28;20473;-78
2022/08/04 11:54:38;;;;;;;3.77;2.90;;;37.00;82.70;;;;;;5033492;28;20453;-79
2022/08/04 11:57:05;;;;;;;2.97;2.70;;;37.20;81.30;;;;;;5033782;28;20551;-78
2022/08/04 11:59:35;;;;;;;2.90;2.63;;;37.10;81.20;;;;;;4953877;28;20486;-78
2022/08/04 12:02:24;;;;;;;5.40;2.57;;;37.00;82.20;;;;;;5013581;28;20470;-78
2022/08/04 12:04:57;;;;;;;5.93;3.00;;;37.10;81.70;;;;;;5007263;28;20493;-78
2022/08/04 12:07:39;;;;;;;3.13;2.80;;;37.40;82.40;;;;;;5013262;28;20803;-78
2022/08/04 12:10:19;;;;;;;7.63;3.13;;;37.60;80.30;;;;;;5013416;28;20446;-78
2022/08/04 12:12:55;;;;;;;4.20;2.60;;;37.80;82.50;;;;;;5013614;28;20511;-78
2022/08/04 12:15:27;;;;;;;5.90;2.83;;;38.30;80.00;;;;;;5013345;28;20809;-77
2022/08/04 12:18:00;;;;;;;3.77;2.57;;;38.50;78.20;;;;;;5013779;28;20461;-78
2022/08/04 12:20:30;;;;;;;3.83;2.50;;;38.50;79.50;;;;;;5013119;28;20498;-78
2022/08/04 12:22:57;;;;;;;2.77;2.37;;;38.60;79.60;;;;;;5013377;28;20962;-78
2022/08/04 12:25:30;;;;;;;5.60;2.90;;;38.80;77.10;;;;;;5013444;28;20485;-78
2022/08/04 12:28:02;;;;;;;4.83;3.10;;;38.20;76.20;;;;;;5013230;28;20877;-78
2022/08/04 12:30:36;;;;;;;3.53;2.70;;;37.60;77.20;;;;;;5013608;28;20466;-78
2022/08/04 12:33:06;;;;;;;4.60;3.17;;;37.40;78.30;;;;;;5013457;28;20488;-78
2022/08/04 12:35:38;;;;;;;9.90;3.37;;;37.40;79.00;;;;;;5013055;28;20454;-78
2022/08/04 12:38:06;;;;;;;4.13;2.70;;;37.80;78.50;;;;;;5013298;28;20450;-78
2022/08/04 12:40:40;;;;;;;3.33;3.03;;;38.30;76.00;;;;;;5012518;28;20501;-78
2022/08/04 12:43:13;;;;;;;3.63;3.10;;;38.50;76.20;;;;;;5013304;28;20434;-78
2022/08/04 12:45:44;;;;;;;6.97;2.50;;;38.50;74.00;;;;;;5013214;28;20854;-77
2022/08/04 12:48:12;;;;;;;5.17;2.80;;;38.30;74.60;;;;;;5013073;28;20964;-77
2022/08/04 12:50:40;;;;;;;3.40;2.70;;;38.10;74.30;;;;;;5016561;28;20536;-78
2022/08/04 12:53:13;;;;;;;8.60;2.67;;;37.80;74.50;;;;;;5013293;28;20492;-78
2022/08/04 12:55:47;;;;;;;4.97;2.70;;;37.20;75.40;;;;;;5012543;28;20466;-77
2022/08/04 12:58:17;;;;;;;3.83;2.50;;;36.70;76.10;;;;;;5013550;28;20478;-77
2022/08/04 13:00:47;;;;;;;6.57;2.60;;;36.50;77.10;;;;;;5012086;28;20494;-77
2022/08/04 13:03:16;;;;;;;3.73;2.70;;;36.40;77.20;;;;;;5012629;28;20519;-78
2022/08/04 13:05:44;;;;;;;3.30;2.73;;;36.30;76.80;;;;;;5012238;28;20520;-78
2022/08/04 13:08:14;;;;;;;8.20;2.73;;;36.20;76.80;;;;;;5012686;28;20458;-78
2022/08/04 13:10:45;;;;;;;2.50;2.30;;;36.20;77.60;;;;;;4992538;28;20514;-78
2022/08/04 13:13:15;;;;;;;2.60;2.40;;;36.50;77.50;;;;;;4993089;28;20494;-78
2022/08/04 13:15:43;;;;;;;2.87;2.67;;;36.90;76.20;;;;;;4992873;28;20534;-78
2022/08/04 13:18:11;;;;;;;2.83;2.63;;;37.30;76.40;;;;;;4993009;28;20451;-78
2022/08/04 13:20:39;;;;;;;2.67;2.47;;;37.60;76.00;;;;;;4991654;28;20839;-78
2022/08/04 13:23:07;;;;;;;6.30;2.53;;;37.70;74.10;;;;;;4992827;28;20505;-78
2022/08/04 13:25:38;;;;;;;5.37;3.33;;;37.90;74.40;;;;;;4992718;28;20505;-77
2022/08/04 13:28:14;;;;;;;2.53;2.33;;;38.30;73.90;;;;;;5000591;28;20520;-77
2022/08/04 13:30:45;;;;;;;2.53;2.10;;;38.40;74.80;;;;;;5019199;28;20497;-79